createdAt,value
2023-04-10T00:04:18.567Z,61646.03
2023-04-10T00:09:21.241Z,61641.78
2023-04-10T00:14:24.527Z,61639.16
2023-04-10T00:19:28.476Z,61668.22
2023-04-10T00:24:31.075Z,61650.78
2023-04-10T00:29:33.657Z,61683.75
2023-04-10T00:34:37.564Z,61632.78
2023-04-10T00:39:40.092Z,61606.13
2023-04-10T00:44:42.665Z,61640.41
2023-04-10T00:49:47.852Z,61617.13
2023-04-10T00:54:50.916Z,61594.03
2023-04-10T00:59:53.999Z,61560.28
2023-04-10T01:04:58.047Z,61564.56
2023-04-10T01:10:07.853Z,61548.53
2023-04-10T01:15:13.469Z,61583.19
2023-04-10T01:20:21.457Z,61594.03
2023-04-10T01:25:44.701Z,61550.84
2023-04-10T01:30:49.796Z,61579.00
2023-04-10T01:35:56.721Z,61580.31
2023-04-10T01:41:01.229Z,61564.09
2023-04-10T01:46:06.711Z,61545.53
2023-04-10T01:51:11.188Z,61561.63
2023-04-10T01:56:14.969Z,61574.50
2023-04-10T02:01:28.944Z,61543.31
2023-04-10T02:06:42.271Z,61524.44
2023-04-10T02:11:50.427Z,61525.44
2023-04-10T02:16:56.166Z,61532.13
2023-04-10T02:21:59.447Z,61534.06
2023-04-10T02:27:02.597Z,61533.06
2023-04-10T02:32:07.645Z,61510.69
2023-04-10T02:37:10.251Z,61492.94
2023-04-10T02:42:12.848Z,61526.91
2023-04-10T02:47:18.586Z,61538.97
2023-04-10T02:52:21.450Z,61541.63
2023-04-10T02:57:24.037Z,61534.06
2023-04-10T03:02:28.022Z,61537.63
2023-04-10T03:07:32.245Z,61521.53
2023-04-10T03:12:34.883Z,61535.63
2023-04-10T03:17:38.839Z,61521.06
2023-04-10T03:22:41.482Z,61507.56
2023-04-10T03:27:45.038Z,61532.22
2023-04-10T03:32:48.934Z,61519.31
2023-04-10T03:37:51.515Z,61510.22
2023-04-10T03:42:54.105Z,61528.78
2023-04-10T03:47:58.116Z,61524.31
2023-04-10T03:53:01.419Z,61510.13
2023-04-10T03:58:04.135Z,61488.13
2023-04-10T04:03:08.373Z,61462.88
2023-04-10T04:08:12.660Z,61466.59
2023-04-10T04:13:15.324Z,61442.38
2023-04-10T04:18:20.257Z,61432.00
2023-04-10T04:23:23.983Z,61382.84
2023-04-10T04:28:27.532Z,61400.75
2023-04-10T04:33:32.710Z,61368.28
2023-04-10T04:38:35.334Z,61355.09
2023-04-10T04:43:37.904Z,61312.63
2023-04-10T04:48:42.495Z,61320.81
2023-04-10T04:53:45.386Z,61345.69
2023-04-10T04:58:47.989Z,61391.66
2023-04-10T05:03:51.912Z,61370.22
2023-04-10T05:08:54.687Z,61417.94
2023-04-10T05:13:57.299Z,61430.16
2023-04-10T05:19:01.327Z,61451.25
2023-04-10T05:24:04.126Z,61474.38
2023-04-10T05:29:06.685Z,61502.44
2023-04-10T05:34:10.678Z,61506.81
2023-04-10T05:39:13.578Z,61535.00
2023-04-10T05:44:16.271Z,61587.38
2023-04-10T05:49:20.249Z,61589.72
2023-04-10T05:54:22.866Z,61662.84
2023-04-10T05:59:25.570Z,61652.16
2023-04-10T06:04:29.695Z,61705.56
2023-04-10T06:09:32.363Z,61697.44
2023-04-10T06:14:36.242Z,61735.25
2023-04-10T06:19:40.398Z,61743.19
2023-04-10T06:24:43.979Z,61814.94
2023-04-10T06:29:46.455Z,61801.47
2023-04-10T06:34:50.413Z,61860.34
2023-04-10T06:39:53.034Z,61895.03
2023-04-10T06:44:55.651Z,61912.19
2023-04-10T06:49:59.765Z,61971.22
2023-04-10T06:55:02.395Z,62092.78
2023-04-10T07:00:05.618Z,62152.53
2023-04-10T07:05:10.493Z,62137.91
2023-04-10T07:10:13.451Z,62078.59
2023-04-10T07:15:16.318Z,62142.59
2023-04-10T07:20:20.495Z,62232.94
2023-04-10T07:25:23.113Z,62273.94
2023-04-10T07:30:26.030Z,62351.44
2023-04-10T07:35:30.074Z,62327.13
2023-04-10T07:40:32.725Z,62452.63
2023-04-10T07:45:35.381Z,62472.38
2023-04-10T07:50:39.334Z,62481.75
2023-04-10T07:55:44.338Z,62495.53
2023-04-10T08:00:46.951Z,62609.69
2023-04-10T08:05:51.659Z,62472.06
2023-04-10T08:10:54.201Z,62459.44
2023-04-10T08:15:56.803Z,62497.25
2023-04-10T08:21:00.746Z,62463.66
2023-04-10T08:26:03.744Z,62444.94
2023-04-10T08:31:06.918Z,62451.44
2023-04-10T08:36:11.279Z,62332.59
2023-04-10T08:41:13.971Z,62370.53
2023-04-10T08:46:16.898Z,62438.97
2023-04-10T08:51:26.060Z,62550.63
2023-04-10T08:56:29.366Z,62723.47
2023-04-10T09:01:32.303Z,62753.50
2023-04-10T09:06:36.093Z,62605.94
2023-04-10T09:12:00.541Z,62670.25
2023-04-10T09:17:17.498Z,62537.75
2023-04-10T09:22:30.611Z,62532.75
2023-04-10T09:27:35.175Z,62574.88
2023-04-10T09:32:40.531Z,62749.19
2023-04-10T09:37:46.773Z,62735.19
2023-04-10T09:42:49.488Z,62704.56
2023-04-10T09:48:06.612Z,62764.78
2023-04-10T09:53:12.038Z,62692.91
2023-04-10T09:58:15.651Z,62589.72
2023-04-10T10:03:21.021Z,62655.28
2023-04-10T10:08:26.098Z,62715.31
2023-04-10T10:13:32.257Z,62671.78
2023-04-10T10:18:43.812Z,62586.66
2023-04-10T10:23:53.858Z,62574.16
2023-04-10T10:28:57.765Z,62572.03
2023-04-10T10:34:04.719Z,62586.63
2023-04-10T10:39:31.937Z,62606.19
2023-04-10T10:44:43.900Z,62613.03
2023-04-10T10:49:53.898Z,62596.25
2023-04-10T10:54:59.720Z,62529.34
2023-04-10T11:00:02.569Z,62564.53
2023-04-10T11:05:05.521Z,62603.09
2023-04-10T11:10:09.535Z,62595.88
2023-04-10T11:15:12.370Z,62589.19
2023-04-10T11:20:14.886Z,62648.38
2023-04-10T11:25:18.895Z,62597.03
2023-04-10T11:30:30.476Z,62614.41
2023-04-10T11:35:34.886Z,62604.03
2023-04-10T11:40:54.662Z,62573.25
2023-04-10T11:46:05.576Z,62570.34
2023-04-10T11:51:10.346Z,62571.59
2023-04-10T11:56:22.366Z,62602.06
2023-04-10T12:01:26.180Z,62614.91
2023-04-10T12:06:28.992Z,62656.28
2023-04-10T12:11:32.877Z,62655.34
2023-04-10T12:16:36.073Z,62711.53
2023-04-10T12:21:39.450Z,62791.91
2023-04-10T12:26:50.518Z,62836.13
2023-04-10T12:31:53.157Z,62751.72
2023-04-10T12:36:55.749Z,62812.44
2023-04-10T12:42:13.632Z,62760.97
2023-04-10T12:47:16.187Z,62769.97
2023-04-10T12:52:23.464Z,62753.91
2023-04-10T12:57:28.466Z,62689.25
2023-04-10T13:02:31.218Z,62665.47
2023-04-10T13:07:34.041Z,62629.22
2023-04-10T13:12:39.038Z,62653.19
2023-04-10T13:17:41.904Z,62610.22
2023-04-10T13:22:44.610Z,62644.75
2023-04-10T13:27:48.508Z,62614.66
2023-04-10T13:32:51.127Z,62594.19
2023-04-10T13:37:54.283Z,62591.94
2023-04-10T13:42:58.125Z,62602.50
2023-04-10T13:48:00.773Z,62544.41
2023-04-10T13:53:03.437Z,62580.81
2023-04-10T13:58:07.939Z,62532.25
2023-04-10T14:03:12.265Z,62511.06
2023-04-10T14:08:16.380Z,62499.72
2023-04-10T14:13:20.434Z,62502.25
2023-04-10T14:18:23.057Z,62457.44
2023-04-10T14:23:26.028Z,62488.44
2023-04-10T14:28:29.952Z,62459.38
2023-04-10T14:33:32.637Z,62490.88
2023-04-10T14:38:36.667Z,62455.13
2023-04-10T14:43:40.752Z,62439.75
2023-04-10T14:48:43.869Z,62441.44
2023-04-10T14:53:46.813Z,62488.44
2023-04-10T14:58:50.752Z,62495.41
2023-04-10T15:03:53.623Z,62502.13
2023-04-10T15:08:56.649Z,62470.13
2023-04-10T15:14:02.222Z,62461.28
2023-04-10T15:19:04.875Z,62502.88
2023-04-10T15:24:07.765Z,62506.09
2023-04-10T15:29:11.821Z,62505.63
2023-04-10T15:34:14.377Z,62493.16
2023-04-10T15:39:16.998Z,62504.19
2023-04-10T15:44:21.921Z,62504.72
2023-04-10T15:49:36.360Z,62503.47
2023-04-10T15:54:40.732Z,62454.72
2023-04-10T15:59:44.612Z,62459.63
2023-04-10T16:04:47.306Z,62411.31
2023-04-10T16:09:52.323Z,62346.75
2023-04-10T16:14:56.287Z,62331.94
2023-04-10T16:19:58.855Z,62291.63
2023-04-10T16:25:01.661Z,62278.25
2023-04-10T16:30:06.679Z,62220.97
2023-04-10T16:35:09.692Z,62184.34
2023-04-10T16:40:13.462Z,62146.06
2023-04-10T16:45:17.492Z,62085.84
2023-04-10T16:50:20.270Z,62106.81
2023-04-10T16:55:22.893Z,62089.91
2023-04-10T17:00:27.449Z,62081.91
2023-04-10T17:05:35.345Z,62099.16
2023-04-10T17:10:37.885Z,62123.06
2023-04-10T17:15:41.870Z,62102.47
2023-04-10T17:20:45.509Z,62087.50
2023-04-10T17:25:49.201Z,62154.59
2023-04-10T17:30:53.106Z,62138.84
2023-04-10T17:35:56.389Z,62073.69
2023-04-10T17:40:58.965Z,62097.56
2023-04-10T17:46:03.384Z,62075.41
2023-04-10T17:51:06.815Z,62078.19
2023-04-10T17:56:09.387Z,62078.31
2023-04-10T18:01:13.751Z,62115.16
2023-04-10T18:06:16.509Z,62072.03
2023-04-10T18:11:19.183Z,62039.22
2023-04-10T18:16:23.293Z,62044.91
2023-04-10T18:21:27.159Z,62021.91
2023-04-10T18:26:31.789Z,61981.63
2023-04-10T18:31:35.730Z,61987.31
2023-04-10T18:36:38.302Z,62040.41
2023-04-10T18:41:40.844Z,61980.47
2023-04-10T18:46:48.617Z,62033.13
2023-04-10T18:51:56.467Z,61991.94
2023-04-10T18:56:58.973Z,61997.03
2023-04-10T19:02:03.167Z,61984.50
2023-04-10T19:07:05.807Z,61994.91
2023-04-10T19:12:08.568Z,61995.97
2023-04-10T19:17:12.484Z,62005.38
2023-04-10T19:22:16.273Z,62021.06
2023-04-10T19:27:18.890Z,61992.91
2023-04-10T19:32:22.808Z,62013.78
2023-04-10T19:37:25.691Z,62001.41
2023-04-10T19:42:28.257Z,62011.88
2023-04-10T19:47:33.226Z,61966.09
2023-04-10T19:52:35.895Z,61996.88
2023-04-10T19:57:38.526Z,62012.03
2023-04-10T20:02:42.710Z,61987.53
2023-04-10T20:07:45.412Z,62019.78
2023-04-10T20:12:48.036Z,61989.06
2023-04-10T20:17:51.991Z,61991.56
2023-04-10T20:22:54.573Z,62002.50
2023-04-10T20:27:57.242Z,62015.09
2023-04-10T20:33:01.193Z,62008.88
2023-04-10T20:38:03.816Z,61974.50
2023-04-10T20:43:10.923Z,61991.63
2023-04-10T20:48:14.866Z,62001.41
2023-04-10T20:53:17.443Z,62008.09
2023-04-10T20:58:20.024Z,62004.38
2023-04-10T21:03:24.294Z,61973.50
2023-04-10T21:08:26.971Z,62020.25
2023-04-10T21:13:29.607Z,62006.53
2023-04-10T21:18:33.505Z,62014.34
2023-04-10T21:23:36.199Z,61919.47
2023-04-10T21:28:38.855Z,61935.03
2023-04-10T21:33:44.069Z,61970.59
2023-04-10T21:38:46.587Z,61983.28
2023-04-10T21:43:49.177Z,61985.50
2023-04-10T21:48:53.318Z,62012.72
2023-04-10T21:53:56.107Z,62018.75
2023-04-10T21:58:58.702Z,62006.16
2023-04-10T22:04:03.329Z,61954.44
2023-04-10T22:09:06.013Z,61954.84
2023-04-10T22:14:17.149Z,61963.34
2023-04-10T22:19:22.915Z,62010.41
2023-04-10T22:24:25.808Z,61975.13
2023-04-10T22:29:28.405Z,62010.94
2023-04-10T22:34:32.729Z,61956.56
2023-04-10T22:39:35.291Z,61969.50
2023-04-10T22:44:37.835Z,61936.34
2023-04-10T22:49:42.774Z,61929.47
2023-04-10T22:54:45.356Z,61906.09
2023-04-10T22:59:47.984Z,61946.88
2023-04-10T23:04:51.888Z,61916.41
2023-04-10T23:09:54.532Z,61951.34
2023-04-10T23:14:57.059Z,61925.38
2023-04-10T23:20:00.951Z,61936.25
2023-04-10T23:25:03.571Z,61940.75
2023-04-10T23:30:07.606Z,61952.94
2023-04-10T23:35:11.807Z,61953.69
2023-04-10T23:40:14.645Z,61998.44
2023-04-10T23:45:17.244Z,61948.53
2023-04-10T23:50:21.206Z,61905.81
2023-04-10T23:55:23.767Z,61828.97
